createdAt,value
2022-09-29T00:00:04.901Z,0.00
2022-09-29T00:01:04.893Z,0.00
2022-09-29T00:02:04.938Z,0.00
2022-09-29T00:03:04.884Z,0.00
2022-09-29T00:04:04.842Z,0.00
2022-09-29T00:05:04.822Z,0.00
2022-09-29T00:06:04.832Z,0.00
2022-09-29T00:07:04.794Z,0.00
2022-09-29T00:08:04.803Z,0.00
2022-09-29T00:09:04.791Z,0.00
2022-09-29T00:10:04.773Z,0.00
2022-09-29T00:11:04.754Z,0.00
2022-09-29T00:12:04.742Z,0.00
2022-09-29T00:13:04.735Z,0.00
2022-09-29T00:14:04.714Z,0.00
2022-09-29T00:15:04.703Z,0.00
2022-09-29T00:16:04.731Z,0.00
2022-09-29T00:17:04.675Z,0.00
2022-09-29T00:18:20.056Z,0.00
2022-09-29T00:19:05.652Z,0.00
2022-09-29T00:20:04.633Z,0.00
2022-09-29T00:21:04.635Z,0.00
2022-09-29T00:22:04.614Z,0.00
2022-09-29T00:23:04.584Z,0.00
2022-09-29T00:24:04.598Z,0.00
2022-09-29T00:25:04.574Z,0.00
2022-09-29T00:26:04.563Z,0.00
2022-09-29T00:27:04.534Z,0.00
2022-09-29T00:28:04.539Z,0.00
2022-09-29T00:29:04.514Z,0.00
2022-09-29T00:30:04.504Z,0.00
2022-09-29T00:31:04.607Z,0.00
2022-09-29T00:32:04.487Z,0.00
2022-09-29T00:33:04.465Z,0.00
2022-09-29T00:34:04.447Z,0.00
2022-09-29T00:35:04.444Z,0.00
2022-09-29T00:36:04.443Z,0.00
2022-09-29T00:37:04.414Z,0.00
2022-09-29T00:38:04.407Z,0.00
2022-09-29T00:39:04.399Z,0.00
2022-09-29T00:40:04.386Z,0.00
2022-09-29T00:41:04.356Z,0.00
2022-09-29T00:42:04.357Z,0.00
2022-09-29T00:43:04.337Z,0.00
2022-09-29T00:44:04.334Z,0.00
2022-09-29T00:45:04.307Z,0.00
2022-09-29T00:46:04.386Z,0.00
2022-09-29T00:47:04.276Z,0.00
2022-09-29T00:48:04.286Z,0.00
2022-09-29T00:49:04.253Z,0.00
2022-09-29T00:50:04.251Z,0.00
2022-09-29T00:51:04.237Z,0.00
2022-09-29T00:52:04.227Z,0.00
2022-09-29T00:53:04.212Z,0.00
2022-09-29T00:54:04.191Z,0.00
2022-09-29T00:55:04.178Z,0.00
2022-09-29T00:56:04.178Z,0.00
2022-09-29T00:57:04.156Z,0.00
2022-09-29T00:58:04.136Z,0.00
2022-09-29T00:59:04.118Z,0.00
2022-09-29T01:00:04.111Z,0.00
2022-09-29T01:01:04.141Z,0.00
2022-09-29T01:02:04.146Z,0.00
2022-09-29T01:03:04.079Z,0.00
2022-09-29T01:04:04.074Z,0.00
2022-09-29T01:05:04.039Z,0.00
2022-09-29T01:06:04.049Z,0.00
2022-09-29T01:07:04.020Z,0.00
2022-09-29T01:08:04.009Z,0.00
2022-09-29T01:09:03.989Z,0.00
2022-09-29T01:10:03.979Z,0.00
2022-09-29T01:11:03.969Z,0.00
2022-09-29T01:12:03.964Z,0.00
2022-09-29T01:13:03.939Z,0.00
2022-09-29T01:14:03.931Z,0.00
2022-09-29T01:15:03.910Z,0.00
2022-09-29T01:16:03.935Z,0.00
2022-09-29T01:17:03.899Z,0.00
2022-09-29T01:18:03.875Z,0.00
2022-09-29T01:19:03.861Z,0.00
2022-09-29T01:20:05.046Z,0.00
2022-09-29T01:21:03.853Z,0.00
2022-09-29T01:22:03.821Z,0.00
2022-09-29T01:23:03.801Z,0.00
2022-09-29T01:24:03.803Z,0.00
2022-09-29T01:25:03.795Z,0.00
2022-09-29T01:26:03.796Z,0.00
2022-09-29T01:27:03.761Z,0.00
2022-09-29T01:28:03.751Z,0.00
2022-09-29T01:29:03.732Z,0.00
2022-09-29T01:30:03.721Z,0.00
2022-09-29T01:31:03.789Z,0.00
2022-09-29T01:32:03.702Z,0.00
2022-09-29T01:33:03.672Z,0.00
2022-09-29T01:34:03.673Z,0.00
2022-09-29T01:35:03.661Z,0.00
2022-09-29T01:36:03.651Z,0.00
2022-09-29T01:37:03.623Z,0.00
2022-09-29T01:38:03.623Z,0.00
2022-09-29T01:39:03.616Z,0.00
2022-09-29T01:40:03.651Z,0.00
2022-09-29T01:41:03.723Z,0.00
2022-09-29T01:42:03.618Z,0.00
2022-09-29T01:43:05.563Z,0.00
2022-09-29T01:44:03.556Z,0.00
2022-09-29T01:45:03.525Z,0.00
2022-09-29T01:46:03.591Z,0.00
2022-09-29T01:47:03.495Z,0.00
2022-09-29T01:48:03.495Z,0.00
2022-09-29T01:49:03.524Z,0.00
2022-09-29T01:50:03.476Z,0.00
2022-09-29T01:51:03.441Z,0.00
2022-09-29T01:52:03.440Z,0.00
2022-09-29T01:53:04.405Z,0.00
2022-09-29T01:54:04.434Z,0.00
2022-09-29T01:55:03.399Z,0.00
2022-09-29T01:56:03.395Z,0.00
2022-09-29T01:57:03.365Z,0.00
2022-09-29T01:58:03.356Z,0.00
2022-09-29T01:59:03.345Z,0.00
2022-09-29T02:00:03.346Z,0.00
2022-09-29T02:01:05.358Z,0.00
2022-09-29T02:02:03.360Z,0.00
2022-09-29T02:03:03.297Z,0.00
2022-09-29T02:04:03.313Z,0.00
2022-09-29T02:05:03.326Z,0.00
2022-09-29T02:06:03.280Z,0.00
2022-09-29T02:07:03.237Z,0.00
2022-09-29T02:08:03.279Z,0.00
2022-09-29T02:09:03.218Z,0.00
2022-09-29T02:10:03.197Z,0.00
2022-09-29T02:11:03.197Z,0.00
2022-09-29T02:12:03.278Z,0.00
2022-09-29T02:13:03.172Z,0.00
2022-09-29T02:14:03.147Z,0.00
2022-09-29T02:15:04.127Z,0.00
2022-09-29T02:16:03.172Z,0.00
2022-09-29T02:17:03.211Z,0.00
2022-09-29T02:18:03.096Z,0.00
2022-09-29T02:19:03.068Z,0.00
2022-09-29T02:20:03.070Z,0.00
2022-09-29T02:21:03.057Z,0.00
2022-09-29T02:22:24.040Z,0.00
2022-09-29T02:23:03.048Z,0.00
2022-09-29T02:24:03.066Z,0.00
2022-09-29T02:25:24.070Z,0.00
2022-09-29T02:26:02.989Z,0.00
2022-09-29T02:27:03.068Z,0.00
2022-09-29T02:28:02.981Z,0.00
2022-09-29T02:29:04.008Z,0.00
2022-09-29T02:30:02.991Z,0.00
2022-09-29T02:31:03.085Z,0.00
2022-09-29T02:32:03.011Z,0.00
2022-09-29T02:33:02.912Z,0.00
2022-09-29T02:34:02.899Z,0.00
2022-09-29T02:35:02.869Z,0.00
2022-09-29T02:36:02.859Z,0.00
2022-09-29T02:37:02.857Z,0.00
2022-09-29T02:38:02.839Z,0.00
2022-09-29T02:39:02.822Z,0.00
2022-09-29T02:40:02.842Z,0.00
2022-09-29T02:41:02.803Z,0.00
2022-09-29T02:42:02.790Z,0.00
2022-09-29T02:43:02.772Z,0.00
2022-09-29T02:44:02.752Z,0.00
2022-09-29T02:45:02.750Z,0.00
2022-09-29T02:46:02.827Z,0.00
2022-09-29T02:47:02.720Z,0.00
2022-09-29T02:48:03.703Z,0.00
2022-09-29T02:49:02.692Z,0.00
2022-09-29T02:50:02.674Z,0.00
2022-09-29T02:51:02.699Z,0.00
2022-09-29T02:52:02.652Z,0.00
2022-09-29T02:53:02.647Z,0.00
2022-09-29T02:54:02.622Z,0.00
2022-09-29T02:55:02.603Z,0.00
2022-09-29T02:56:02.601Z,0.00
2022-09-29T02:57:03.573Z,0.00
2022-09-29T02:58:02.582Z,0.00
2022-09-29T02:59:03.566Z,0.00
2022-09-29T03:00:04.564Z,0.00
2022-09-29T03:01:02.680Z,0.00
2022-09-29T03:02:02.602Z,0.00
2022-09-29T03:03:02.603Z,0.00
2022-09-29T03:04:04.857Z,0.00
2022-09-29T03:05:02.472Z,0.00
2022-09-29T03:06:02.464Z,0.00
2022-09-29T03:07:02.533Z,0.00
2022-09-29T03:08:02.436Z,0.00
2022-09-29T03:09:02.433Z,0.00
2022-09-29T03:10:02.403Z,0.00
2022-09-29T03:11:02.405Z,0.00
2022-09-29T03:12:02.461Z,0.00
2022-09-29T03:13:02.374Z,0.00
2022-09-29T03:14:02.365Z,0.00
2022-09-29T03:15:02.345Z,0.00
2022-09-29T03:16:02.511Z,0.00
2022-09-29T03:17:02.315Z,0.00
2022-09-29T03:18:02.311Z,0.00
2022-09-29T03:19:03.303Z,0.00
2022-09-29T03:20:02.276Z,0.00
2022-09-29T03:21:02.284Z,0.00
2022-09-29T03:22:02.256Z,0.00
2022-09-29T03:23:02.246Z,0.00
2022-09-29T03:24:03.223Z,0.00
2022-09-29T03:25:02.228Z,0.00
2022-09-29T03:26:03.214Z,0.00
2022-09-29T03:27:02.195Z,0.00
2022-09-29T03:28:02.177Z,0.00
2022-09-29T03:29:02.172Z,0.00
2022-09-29T03:30:02.156Z,0.00
2022-09-29T03:31:02.231Z,0.00
2022-09-29T03:32:02.124Z,0.00
2022-09-29T03:33:02.127Z,0.00
2022-09-29T03:34:02.096Z,0.00
2022-09-29T03:35:02.088Z,0.00
2022-09-29T03:36:02.078Z,0.00
2022-09-29T03:37:02.058Z,0.00
2022-09-29T03:38:02.047Z,0.00
2022-09-29T03:39:02.037Z,0.00
2022-09-29T03:40:03.020Z,0.00
2022-09-29T03:41:02.056Z,0.00
2022-09-29T03:42:02.000Z,0.00
2022-09-29T03:43:01.977Z,0.00
2022-09-29T03:44:03.985Z,0.00
2022-09-29T03:45:01.957Z,0.00
2022-09-29T03:46:02.142Z,0.00
2022-09-29T03:47:01.935Z,0.00
2022-09-29T03:48:01.918Z,0.00
2022-09-29T03:49:01.907Z,0.00
2022-09-29T03:50:02.893Z,0.00
2022-09-29T04:03:30.557Z,0.00
2022-09-29T04:04:30.536Z,0.00
2022-09-29T04:05:30.540Z,0.00
2022-09-29T04:06:30.517Z,0.00
2022-09-29T04:07:30.494Z,0.00
2022-09-29T04:08:30.474Z,0.00
2022-09-29T04:09:30.465Z,0.00
2022-09-29T04:10:30.472Z,0.00
2022-09-29T04:11:30.435Z,0.00
2022-09-29T04:12:30.429Z,0.00
2022-09-29T04:13:30.422Z,0.00
2022-09-29T04:14:30.396Z,0.00
2022-09-29T04:15:30.407Z,0.00
2022-09-29T04:16:30.543Z,0.00
2022-09-29T04:17:30.359Z,0.00
2022-09-29T04:18:30.356Z,0.00
2022-09-29T04:19:30.338Z,0.00
2022-09-29T04:20:30.351Z,0.00
2022-09-29T04:21:30.333Z,0.00
2022-09-29T04:22:30.397Z,0.00
2022-09-29T04:23:30.297Z,0.00
2022-09-29T04:24:30.327Z,0.00
2022-09-29T04:25:30.339Z,0.00
2022-09-29T04:26:30.345Z,0.00
2022-09-29T04:27:30.327Z,0.00
2022-09-29T04:28:30.229Z,0.00
2022-09-29T04:29:30.239Z,0.00
2022-09-29T04:30:30.283Z,0.00
2022-09-29T04:31:30.303Z,0.00
2022-09-29T04:32:30.341Z,0.00
2022-09-29T04:33:30.172Z,0.00
2022-09-29T04:34:30.203Z,0.00
2022-09-29T04:35:34.803Z,0.00
2022-09-29T04:36:31.266Z,0.00
2022-09-29T04:37:31.131Z,0.00
2022-09-29T04:38:30.138Z,0.00
2022-09-29T04:39:30.125Z,0.00
2022-09-29T04:40:30.193Z,0.00
2022-09-29T04:41:30.131Z,0.00
2022-09-29T04:42:30.139Z,0.00
2022-09-29T04:43:30.052Z,0.00
2022-09-29T04:44:30.068Z,0.00
2022-09-29T04:45:31.265Z,0.00
2022-09-29T04:46:29.996Z,0.00
2022-09-29T04:47:30.078Z,0.00
2022-09-29T04:48:33.683Z,0.00
2022-09-29T04:49:30.951Z,0.00
2022-09-29T04:50:29.972Z,0.00
2022-09-29T04:51:29.923Z,0.00
2022-09-29T04:52:29.921Z,0.00
2022-09-29T04:53:29.915Z,0.00
2022-09-29T04:54:35.403Z,0.00
2022-09-29T04:55:30.892Z,0.00
2022-09-29T04:56:29.893Z,0.00
2022-09-29T04:57:29.860Z,0.00
2022-09-29T04:58:29.880Z,0.00
2022-09-29T04:59:29.834Z,0.00
2022-09-29T05:00:29.843Z,0.00
2022-09-29T05:01:29.860Z,0.00
2022-09-29T05:02:29.840Z,0.00
2022-09-29T05:03:29.790Z,0.00
2022-09-29T05:04:29.801Z,0.00
2022-09-29T05:05:29.806Z,0.00
2022-09-29T05:06:29.753Z,0.00
2022-09-29T05:07:29.742Z,0.00
2022-09-29T05:08:29.733Z,0.00
2022-09-29T05:09:33.299Z,0.00
2022-09-29T05:10:29.727Z,0.00
2022-09-29T05:11:29.720Z,0.00
2022-09-29T05:12:29.695Z,0.00
2022-09-29T05:13:29.673Z,0.00
2022-09-29T05:14:29.631Z,0.00
2022-09-29T05:15:30.654Z,0.00
2022-09-29T05:16:29.704Z,0.00
2022-09-29T05:17:29.591Z,0.00
2022-09-29T05:18:29.602Z,0.00
2022-09-29T05:19:29.576Z,0.00
2022-09-29T05:20:38.804Z,0.00
2022-09-29T05:21:30.558Z,0.00
2022-09-29T05:22:29.604Z,0.00
2022-09-29T05:23:29.545Z,0.00
2022-09-29T05:24:29.517Z,0.00
2022-09-29T05:25:29.515Z,0.00
2022-09-29T05:26:30.481Z,0.00
2022-09-29T05:27:29.514Z,0.00
2022-09-29T05:28:29.475Z,0.00
2022-09-29T05:29:29.455Z,5.62
2022-09-29T05:30:29.482Z,5.62
2022-09-29T05:31:29.484Z,5.62
2022-09-29T05:32:29.407Z,5.62
2022-09-29T05:33:29.399Z,5.62
2022-09-29T05:34:29.403Z,5.62
2022-09-29T05:35:32.697Z,5.62
2022-09-29T05:36:30.405Z,5.62
2022-09-29T05:37:29.399Z,5.62
2022-09-29T05:38:29.432Z,5.62
2022-09-29T05:39:29.407Z,5.62
2022-09-29T05:40:29.379Z,5.62
2022-09-29T05:41:50.316Z,5.62
2022-09-29T05:42:29.274Z,5.62
2022-09-29T05:43:29.345Z,5.62
2022-09-29T05:44:29.343Z,5.62
2022-09-29T05:45:29.345Z,5.62
2022-09-29T05:46:50.237Z,5.62
2022-09-29T05:47:29.246Z,11.25
2022-09-29T05:48:29.271Z,11.25
2022-09-29T05:49:29.283Z,11.25
2022-09-29T05:50:29.218Z,11.25
2022-09-29T05:51:29.179Z,11.25
2022-09-29T05:52:29.187Z,11.25
2022-09-29T05:53:30.225Z,11.25
2022-09-29T05:54:29.206Z,11.25
2022-09-29T05:55:29.152Z,11.25
2022-09-29T05:56:29.119Z,11.25
2022-09-29T05:57:29.157Z,11.25
2022-09-29T05:58:31.118Z,11.25
2022-09-29T05:59:29.129Z,11.25
2022-09-29T06:00:29.110Z,11.25
2022-09-29T06:01:29.108Z,11.25
2022-09-29T06:02:29.102Z,11.25
2022-09-29T06:03:29.065Z,11.25
2022-09-29T06:04:29.072Z,11.25
2022-09-29T06:05:29.016Z,11.25
2022-09-29T06:06:29.001Z,11.25
2022-09-29T06:07:28.987Z,16.88
2022-09-29T06:08:28.965Z,16.88
2022-09-29T06:09:29.012Z,16.88
2022-09-29T06:10:28.982Z,22.50
2022-09-29T06:11:29.009Z,28.12
2022-09-29T06:12:28.890Z,33.75
2022-09-29T06:13:28.935Z,39.38
2022-09-29T06:14:28.881Z,39.38
2022-09-29T06:15:29.014Z,39.38
2022-09-29T06:16:29.061Z,39.38
2022-09-29T06:17:28.857Z,39.38
2022-09-29T06:18:28.847Z,33.75
2022-09-29T06:19:28.829Z,33.75
2022-09-29T06:20:28.908Z,33.75
2022-09-29T06:21:28.877Z,28.12
2022-09-29T06:22:28.794Z,28.12
2022-09-29T06:23:28.789Z,22.50
2022-09-29T06:24:28.767Z,22.50
2022-09-29T06:25:28.808Z,28.12
2022-09-29T06:26:28.839Z,28.12
2022-09-29T06:27:28.719Z,22.50
2022-09-29T06:28:28.733Z,22.50
2022-09-29T06:29:28.733Z,22.50
2022-09-29T06:30:28.750Z,22.50
2022-09-29T06:31:28.816Z,28.12
2022-09-29T06:32:28.687Z,28.12
2022-09-29T06:33:28.674Z,22.50
2022-09-29T06:34:28.677Z,22.50
2022-09-29T06:35:28.743Z,28.12
2022-09-29T06:36:28.752Z,28.12
2022-09-29T06:37:28.589Z,33.75
2022-09-29T06:38:28.596Z,33.75
2022-09-29T06:39:28.603Z,33.75
2022-09-29T06:40:28.591Z,33.75
2022-09-29T06:41:28.624Z,33.75
2022-09-29T06:42:28.680Z,28.12
2022-09-29T06:43:28.519Z,28.12
2022-09-29T06:44:28.542Z,28.12
2022-09-29T06:45:28.641Z,28.12
2022-09-29T06:46:29.506Z,28.12
2022-09-29T06:47:28.762Z,28.12
2022-09-29T06:48:28.470Z,33.75
2022-09-29T06:49:28.494Z,33.75
2022-09-29T06:50:28.549Z,33.75
2022-09-29T06:51:38.565Z,33.75
2022-09-29T06:52:30.154Z,39.38
2022-09-29T06:53:35.886Z,39.38
2022-09-29T06:54:29.441Z,39.38
2022-09-29T06:55:28.452Z,45.00
2022-09-29T06:56:28.409Z,45.00
2022-09-29T06:57:28.429Z,45.00
2022-09-29T06:58:28.338Z,45.00
2022-09-29T06:59:28.326Z,45.00
2022-09-29T07:00:28.416Z,50.62
2022-09-29T07:01:28.353Z,56.25
2022-09-29T07:02:28.455Z,56.25
2022-09-29T07:03:28.272Z,50.62
2022-09-29T07:04:28.317Z,50.62
2022-09-29T07:05:28.301Z,45.00
2022-09-29T07:06:28.271Z,50.62
2022-09-29T07:07:28.295Z,50.62
2022-09-29T07:08:28.182Z,50.62
2022-09-29T07:09:28.206Z,56.25
2022-09-29T07:10:28.262Z,56.25
2022-09-29T07:11:28.223Z,56.25
2022-09-29T07:12:28.215Z,56.25
2022-09-29T07:13:28.252Z,61.88
2022-09-29T07:14:28.122Z,61.88
2022-09-29T07:15:31.904Z,61.88
2022-09-29T07:16:28.153Z,61.88
2022-09-29T07:17:28.155Z,61.88
2022-09-29T07:18:28.167Z,61.88
2022-09-29T07:19:28.072Z,61.88
2022-09-29T07:20:28.119Z,67.50
2022-09-29T07:21:29.019Z,67.50
2022-09-29T07:22:27.999Z,67.50
2022-09-29T07:23:28.205Z,61.88
2022-09-29T07:24:27.995Z,61.88
2022-09-29T07:25:50.573Z,56.25
2022-09-29T07:26:31.053Z,61.88
2022-09-29T07:27:28.934Z,61.88
2022-09-29T07:28:27.915Z,67.50
2022-09-29T07:29:27.926Z,73.12
2022-09-29T07:30:37.123Z,73.12
2022-09-29T07:31:30.105Z,73.12
2022-09-29T07:32:57.872Z,73.12
2022-09-29T07:33:37.894Z,73.12
2022-09-29T07:34:28.877Z,73.12
2022-09-29T07:35:27.915Z,73.12
2022-09-29T07:36:27.867Z,78.75
2022-09-29T07:37:27.889Z,78.75
2022-09-29T07:38:27.792Z,78.75
2022-09-29T07:39:27.794Z,73.12
2022-09-29T07:40:27.909Z,73.12
2022-09-29T07:41:27.796Z,67.50
2022-09-29T07:42:27.772Z,67.50
2022-09-29T07:43:27.707Z,73.12
2022-09-29T07:44:56.520Z,78.75
2022-09-29T07:45:36.720Z,78.75
2022-09-29T07:46:29.970Z,73.12
2022-09-29T07:47:29.525Z,67.50
2022-09-29T07:48:31.413Z,67.50
2022-09-29T07:49:31.094Z,67.50
2022-09-29T07:50:28.864Z,67.50
2022-09-29T07:51:27.674Z,73.12
2022-09-29T07:52:27.764Z,78.75
2022-09-29T07:53:27.694Z,78.75
2022-09-29T07:54:29.681Z,78.75
2022-09-29T07:55:27.553Z,78.75
2022-09-29T07:56:27.549Z,78.75
2022-09-29T07:57:27.528Z,78.75
2022-09-29T07:58:27.517Z,78.75
2022-09-29T07:59:27.536Z,78.75
2022-09-29T08:00:27.494Z,78.75
2022-09-29T08:01:27.528Z,78.75
2022-09-29T08:02:27.506Z,78.75
2022-09-29T08:03:27.523Z,78.75
2022-09-29T08:04:27.479Z,78.75
2022-09-29T08:05:27.412Z,78.75
2022-09-29T08:06:27.412Z,78.75
2022-09-29T08:07:27.417Z,78.75
2022-09-29T08:08:27.408Z,78.75
2022-09-29T08:09:36.843Z,78.75
2022-09-29T08:10:28.351Z,84.38
2022-09-29T08:11:31.543Z,84.38
2022-09-29T08:12:38.769Z,78.75
2022-09-29T08:13:28.331Z,78.75
2022-09-29T08:14:27.318Z,84.38
2022-09-29T08:15:27.280Z,95.62
2022-09-29T08:16:27.375Z,95.62
2022-09-29T08:17:27.299Z,95.62
2022-09-29T08:18:27.271Z,106.88
2022-09-29T08:19:27.266Z,106.88
2022-09-29T08:20:27.241Z,106.88
2022-09-29T08:21:27.210Z,106.88
2022-09-29T08:22:35.583Z,118.12
2022-09-29T08:23:48.181Z,112.50
2022-09-29T08:24:27.150Z,112.50
2022-09-29T08:25:27.144Z,101.25
2022-09-29T08:26:40.250Z,95.62
2022-09-29T08:27:28.112Z,90.00
2022-09-29T08:28:31.875Z,84.38
2022-09-29T08:29:37.470Z,84.38
2022-09-29T08:30:28.101Z,90.00
2022-09-29T08:31:27.091Z,95.62
2022-09-29T08:32:27.051Z,95.62
2022-09-29T08:33:27.035Z,95.62
2022-09-29T08:34:27.088Z,90.00
2022-09-29T08:35:27.131Z,90.00
2022-09-29T08:36:27.118Z,95.62
2022-09-29T08:37:26.984Z,95.62
2022-09-29T08:38:27.015Z,101.25
2022-09-29T08:39:26.952Z,101.25
2022-09-29T08:40:26.995Z,106.88
2022-09-29T08:41:26.933Z,112.50
2022-09-29T08:42:28.296Z,112.50
2022-09-29T08:43:34.405Z,118.12
2022-09-29T08:44:38.924Z,118.12
2022-09-29T08:45:28.017Z,118.12
2022-09-29T08:46:34.115Z,118.12
2022-09-29T08:47:38.253Z,118.12
2022-09-29T08:48:28.195Z,118.12
2022-09-29T08:49:33.044Z,123.75
2022-09-29T08:50:28.776Z,129.38
2022-09-29T08:51:39.683Z,135.00
2022-09-29T08:52:28.030Z,129.38
2022-09-29T08:53:29.035Z,135.00
2022-09-29T08:54:37.871Z,146.25
2022-09-29T08:55:27.745Z,140.62
2022-09-29T08:56:26.726Z,157.50
2022-09-29T08:57:26.723Z,157.50
2022-09-29T08:58:26.706Z,174.38
2022-09-29T08:59:26.696Z,151.88
2022-09-29T09:00:26.688Z,157.50
2022-09-29T09:01:26.761Z,185.62
2022-09-29T09:02:26.680Z,174.38
2022-09-29T09:03:26.638Z,151.88
2022-09-29T09:04:26.628Z,157.50
2022-09-29T09:05:26.647Z,146.25
2022-09-29T09:06:26.622Z,140.62
2022-09-29T09:07:26.578Z,129.38
2022-09-29T09:08:27.227Z,118.12
2022-09-29T09:09:26.560Z,135.00
2022-09-29T09:10:26.559Z,129.38
2022-09-29T09:11:26.530Z,140.62
2022-09-29T09:12:26.522Z,135.00
2022-09-29T09:13:26.510Z,146.25
2022-09-29T09:14:26.500Z,140.62
2022-09-29T09:15:26.490Z,146.25
2022-09-29T09:16:26.545Z,151.88
2022-09-29T09:17:26.478Z,157.50
2022-09-29T09:18:26.450Z,157.50
2022-09-29T09:19:26.427Z,151.88
2022-09-29T09:20:26.433Z,140.62
2022-09-29T09:21:26.401Z,135.00
2022-09-29T09:22:26.431Z,140.62
2022-09-29T09:23:26.373Z,140.62
2022-09-29T09:24:26.579Z,140.62
2022-09-29T09:25:26.359Z,140.62
2022-09-29T09:26:26.342Z,151.88
2022-09-29T09:27:26.332Z,168.75
2022-09-29T09:28:26.455Z,151.88
2022-09-29T09:29:26.309Z,151.88
2022-09-29T09:30:26.325Z,151.88
2022-09-29T09:31:26.283Z,151.88
2022-09-29T09:32:26.264Z,151.88
2022-09-29T09:33:31.448Z,151.88
2022-09-29T09:34:39.945Z,157.50
2022-09-29T09:35:27.234Z,174.38
2022-09-29T09:36:33.739Z,180.00
2022-09-29T09:37:27.201Z,151.88
2022-09-29T09:38:26.182Z,157.50
2022-09-29T09:39:26.202Z,163.12
2022-09-29T09:40:26.163Z,180.00
2022-09-29T09:41:26.145Z,191.25
2022-09-29T09:42:26.124Z,174.38
2022-09-29T09:43:26.116Z,157.50
2022-09-29T09:44:26.115Z,180.00
2022-09-29T09:45:26.105Z,157.50
2022-09-29T09:46:28.802Z,163.12
2022-09-29T09:47:27.066Z,163.12
2022-09-29T10:03:56.731Z,146.25
2022-09-29T10:04:56.725Z,146.25
2022-09-29T10:05:56.714Z,146.25
2022-09-29T10:06:56.681Z,146.25
2022-09-29T10:07:56.662Z,135.00
2022-09-29T10:08:56.688Z,123.75
2022-09-29T10:09:56.632Z,118.12
2022-09-29T10:10:58.986Z,118.12
2022-09-29T10:11:56.643Z,118.12
2022-09-29T10:12:59.719Z,123.75
2022-09-29T10:13:56.609Z,129.38
2022-09-29T10:14:56.574Z,129.38
2022-09-29T10:15:56.571Z,129.38
2022-09-29T10:16:56.657Z,129.38
2022-09-29T10:17:56.533Z,140.62
2022-09-29T10:18:56.523Z,146.25
2022-09-29T10:19:56.535Z,151.88
2022-09-29T10:20:56.505Z,157.50
2022-09-29T10:21:56.738Z,157.50
2022-09-29T10:22:56.525Z,157.50
2022-09-29T10:23:56.525Z,157.50
2022-09-29T10:24:56.534Z,157.50
2022-09-29T10:25:56.507Z,163.12
2022-09-29T10:26:56.415Z,168.75
2022-09-29T10:27:56.455Z,174.38
2022-09-29T10:28:56.476Z,185.62
2022-09-29T10:29:56.466Z,191.25
2022-09-29T10:30:56.455Z,191.25
2022-09-29T10:31:56.416Z,185.62
2022-09-29T10:32:56.387Z,174.38
2022-09-29T10:33:56.392Z,163.12
2022-09-29T10:34:56.440Z,151.88
2022-09-29T10:35:56.345Z,146.25
2022-09-29T10:36:56.307Z,146.25
2022-09-29T10:37:56.327Z,146.25
2022-09-29T10:38:59.582Z,151.88
2022-09-29T10:39:57.245Z,151.88
2022-09-29T10:40:56.268Z,146.25
2022-09-29T10:41:56.245Z,146.25
2022-09-29T10:42:56.299Z,140.62
2022-09-29T10:43:57.285Z,140.62
2022-09-29T10:44:56.408Z,140.62
2022-09-29T10:45:56.227Z,140.62
2022-09-29T10:46:56.192Z,135.00
2022-09-29T10:47:56.278Z,129.38
2022-09-29T10:48:56.218Z,123.75
2022-09-29T10:49:56.198Z,123.75
2022-09-29T10:50:56.191Z,123.75
2022-09-29T10:51:56.112Z,112.50
2022-09-29T10:52:56.071Z,106.88
2022-09-29T10:53:56.120Z,106.88
2022-09-29T10:54:57.059Z,106.88
2022-09-29T10:55:56.061Z,112.50
2022-09-29T10:56:56.084Z,118.12
2022-09-29T10:57:56.011Z,135.00
2022-09-29T10:59:03.193Z,151.88
2022-09-29T10:59:57.003Z,146.25
2022-09-29T11:00:56.079Z,151.88
2022-09-29T11:01:56.223Z,157.50
2022-09-29T11:02:55.932Z,151.88
2022-09-29T11:03:55.922Z,157.50
2022-09-29T11:04:55.912Z,157.50
2022-09-29T11:05:55.902Z,168.75
2022-09-29T11:06:55.883Z,157.50
2022-09-29T11:07:55.882Z,157.50
2022-09-29T11:08:55.921Z,163.12
2022-09-29T11:09:55.844Z,168.75
2022-09-29T11:10:55.835Z,174.38
2022-09-29T11:12:00.761Z,208.12
2022-09-29T11:12:56.798Z,202.50
2022-09-29T11:13:55.786Z,208.12
2022-09-29T11:14:55.906Z,191.25
2022-09-29T11:15:55.766Z,168.75
2022-09-29T11:16:55.848Z,208.12
2022-09-29T11:17:55.792Z,225.00
2022-09-29T11:18:55.714Z,270.00
2022-09-29T11:19:55.723Z,174.38
2022-09-29T11:20:55.695Z,151.88
2022-09-29T11:21:55.706Z,151.88
2022-09-29T11:22:55.667Z,151.88
2022-09-29T11:23:55.653Z,135.00
2022-09-29T11:24:55.654Z,118.12
2022-09-29T11:25:55.625Z,106.88
2022-09-29T11:26:55.733Z,101.25
2022-09-29T11:27:55.606Z,95.62
2022-09-29T11:28:55.656Z,95.62
2022-09-29T11:29:55.588Z,95.62
2022-09-29T11:30:55.604Z,95.62
2022-09-29T11:31:55.538Z,95.62
2022-09-29T11:32:55.532Z,95.62
2022-09-29T11:33:55.517Z,95.62
2022-09-29T11:34:55.531Z,106.88
2022-09-29T11:35:55.487Z,123.75
2022-09-29T11:36:55.512Z,112.50
2022-09-29T11:37:55.469Z,112.50
2022-09-29T11:38:55.531Z,118.12
2022-09-29T11:39:55.433Z,118.12
2022-09-29T11:40:55.438Z,112.50
2022-09-29T11:41:55.408Z,101.25
2022-09-29T11:42:55.414Z,95.62
2022-09-29T11:43:55.381Z,95.62
2022-09-29T11:44:55.526Z,95.62
2022-09-29T11:45:55.432Z,95.62
2022-09-29T11:46:55.350Z,95.62
2022-09-29T11:47:55.338Z,95.62
2022-09-29T11:48:55.309Z,95.62
2022-09-29T11:49:55.372Z,106.88
2022-09-29T11:50:55.366Z,112.50
2022-09-29T11:51:55.303Z,123.75
2022-09-29T11:52:55.319Z,146.25
2022-09-29T11:53:55.330Z,157.50
2022-09-29T11:54:55.244Z,163.12
2022-09-29T11:55:55.309Z,174.38
2022-09-29T11:56:55.214Z,168.75
2022-09-29T11:57:55.201Z,174.38
2022-09-29T11:58:55.191Z,168.75
2022-09-29T11:59:55.212Z,168.75
2022-09-29T12:00:55.187Z,146.25
2022-09-29T12:01:55.141Z,118.12
2022-09-29T12:02:55.210Z,101.25
2022-09-29T12:03:55.124Z,95.62
2022-09-29T12:04:56.202Z,90.00
2022-09-29T12:05:55.123Z,84.38
2022-09-29T12:06:55.099Z,84.38
2022-09-29T12:07:55.116Z,84.38
2022-09-29T12:08:55.097Z,90.00
2022-09-29T12:09:55.042Z,101.25
2022-09-29T12:10:55.050Z,101.25
2022-09-29T12:12:18.819Z,95.62
2022-09-29T12:12:56.005Z,90.00
2022-09-29T12:13:54.983Z,84.38
2022-09-29T12:14:54.968Z,95.62
2022-09-29T12:15:54.964Z,95.62
2022-09-29T12:16:55.009Z,95.62
2022-09-29T12:17:54.938Z,90.00
2022-09-29T12:18:54.919Z,84.38
2022-09-29T12:19:54.905Z,78.75
2022-09-29T12:20:54.913Z,78.75
2022-09-29T12:21:54.876Z,73.12
2022-09-29T12:22:54.857Z,73.12
2022-09-29T12:23:54.852Z,73.12
2022-09-29T12:24:54.839Z,73.12
2022-09-29T12:25:54.826Z,73.12
2022-09-29T12:26:54.807Z,73.12
2022-09-29T12:27:54.798Z,73.12
2022-09-29T12:28:54.787Z,67.50
2022-09-29T12:29:54.768Z,56.25
2022-09-29T12:30:54.866Z,56.25
2022-09-29T12:31:54.739Z,50.62
2022-09-29T12:32:54.738Z,45.00
2022-09-29T12:33:54.712Z,50.62
2022-09-29T12:34:54.708Z,50.62
2022-09-29T12:35:54.696Z,50.62
2022-09-29T12:36:54.669Z,50.62
2022-09-29T12:37:54.730Z,50.62
2022-09-29T12:38:54.651Z,45.00
2022-09-29T12:39:54.660Z,45.00
2022-09-29T12:40:54.621Z,39.38
2022-09-29T12:41:54.611Z,39.38
2022-09-29T12:42:54.591Z,33.75
2022-09-29T12:43:54.590Z,33.75
2022-09-29T12:44:54.568Z,33.75
2022-09-29T12:45:54.718Z,33.75
2022-09-29T12:46:54.551Z,33.75
2022-09-29T12:47:54.572Z,28.12
2022-09-29T12:48:54.570Z,28.12
2022-09-29T12:49:54.714Z,22.50
2022-09-29T12:50:54.589Z,28.12
2022-09-29T12:51:54.491Z,28.12
2022-09-29T12:52:54.560Z,28.12
2022-09-29T12:53:54.565Z,28.12
2022-09-29T12:54:54.519Z,22.50
2022-09-29T12:55:54.627Z,22.50
2022-09-29T12:56:55.512Z,22.50
2022-09-29T12:57:54.403Z,22.50
2022-09-29T12:58:54.483Z,22.50
2022-09-29T12:59:54.383Z,22.50
2022-09-29T13:00:54.420Z,22.50
2022-09-29T13:02:15.412Z,22.50
2022-09-29T13:02:54.324Z,22.50
2022-09-29T13:03:54.415Z,16.88
2022-09-29T13:04:54.315Z,22.50
2022-09-29T13:05:54.346Z,22.50
2022-09-29T13:06:54.334Z,22.50
2022-09-29T13:07:54.354Z,22.50
2022-09-29T13:08:54.377Z,28.12
2022-09-29T13:09:54.265Z,28.12
2022-09-29T13:10:54.298Z,28.12
2022-09-29T13:11:54.297Z,28.12
2022-09-29T13:12:54.315Z,28.12
2022-09-29T13:13:54.165Z,22.50
2022-09-29T13:14:54.195Z,22.50
2022-09-29T13:15:54.260Z,22.50
2022-09-29T13:16:54.228Z,22.50
2022-09-29T13:17:54.241Z,22.50
2022-09-29T13:19:00.122Z,28.12
2022-09-29T13:19:58.306Z,28.12
2022-09-29T13:20:54.158Z,33.75
2022-09-29T13:21:54.128Z,28.12
2022-09-29T13:22:54.153Z,28.12
2022-09-29T13:23:54.161Z,33.75
2022-09-29T13:24:54.050Z,33.75